createdAt,value
2022-12-19T00:01:35.521Z,8.38
2022-12-19T00:04:09.236Z,8.55
2022-12-19T00:06:37.871Z,8.05
2022-12-19T00:09:06.297Z,8.02
2022-12-19T00:11:33.658Z,8.35
2022-12-19T00:14:00.783Z,7.82
2022-12-19T00:16:29.724Z,7.78
2022-12-19T00:18:59.423Z,7.43
2022-12-19T00:21:28.736Z,6.18
2022-12-19T00:23:55.891Z,6.65
2022-12-19T00:26:28.637Z,6.75
2022-12-19T00:28:58.418Z,6.38
2022-12-19T00:31:27.198Z,7.25
2022-12-19T00:33:54.079Z,6.53
2022-12-19T00:36:33.239Z,6.07
2022-12-19T00:39:02.010Z,6.05
2022-12-19T00:41:36.766Z,7.10
2022-12-19T00:44:10.166Z,6.80
2022-12-19T00:46:37.507Z,6.13
2022-12-19T00:49:05.032Z,6.20
2022-12-19T00:51:34.568Z,6.18
2022-12-19T00:54:02.264Z,6.70
2022-12-19T00:56:37.086Z,5.70
2022-12-19T00:59:05.335Z,6.35
2022-12-19T01:01:35.509Z,6.22
2022-12-19T01:06:51.717Z,6.43
2022-12-19T01:09:18.637Z,5.90
2022-12-19T01:12:04.124Z,6.82
2022-12-19T01:14:31.056Z,5.93
2022-12-19T01:16:57.930Z,6.40
2022-12-19T01:19:27.458Z,7.38
2022-12-19T01:21:54.448Z,6.97
2022-12-19T01:24:21.299Z,6.40
2022-12-19T01:26:48.099Z,6.60
2022-12-19T01:29:14.948Z,6.25
2022-12-19T01:31:41.849Z,6.32
2022-12-19T01:34:08.744Z,6.10
2022-12-19T01:36:39.593Z,6.43
2022-12-19T01:39:07.393Z,6.05
2022-12-19T01:41:34.344Z,6.38
2022-12-19T01:44:04.450Z,5.68
2022-12-19T01:46:43.294Z,6.47
2022-12-19T01:49:33.600Z,6.20
2022-12-19T01:52:03.437Z,6.00
2022-12-19T01:54:34.772Z,6.03
2022-12-19T01:57:04.371Z,5.90
2022-12-19T01:59:56.790Z,6.72
2022-12-19T02:02:26.684Z,5.55
2022-12-19T02:04:53.683Z,6.65
2022-12-19T02:07:23.571Z,5.93
2022-12-19T02:09:56.952Z,6.38
2022-12-19T02:12:26.037Z,6.72
2022-12-19T02:14:54.923Z,5.72
2022-12-19T02:17:31.756Z,6.40
2022-12-19T02:20:17.239Z,6.10
2022-12-19T02:22:59.012Z,6.07
2022-12-19T02:28:39.886Z,6.45
2022-12-19T02:31:26.829Z,6.28
2022-12-19T02:34:01.642Z,6.32
2022-12-19T02:36:35.802Z,6.75
2022-12-19T02:39:15.744Z,7.03
2022-12-19T02:41:47.517Z,6.78
2022-12-19T02:44:26.379Z,6.70
2022-12-19T02:46:53.884Z,8.05
2022-12-19T02:49:26.875Z,6.38
2022-12-19T02:51:58.339Z,6.93
2022-12-19T02:54:25.586Z,6.00
2022-12-19T02:57:00.656Z,6.90
2022-12-19T02:59:46.295Z,6.93
2022-12-19T03:02:31.967Z,7.97
2022-12-19T03:05:26.786Z,7.78
2022-12-19T03:08:06.083Z,7.20
2022-12-19T03:11:06.780Z,8.00
2022-12-19T03:13:56.042Z,8.00
2022-12-19T03:16:24.121Z,7.63
2022-12-19T03:18:52.035Z,8.20
2022-12-19T03:21:32.187Z,8.02
2022-12-19T03:23:59.327Z,8.52
2022-12-19T03:26:31.245Z,8.57
2022-12-19T03:29:05.281Z,7.88
2022-12-19T03:31:33.557Z,8.35
2022-12-19T03:34:28.612Z,8.90
2022-12-19T03:36:58.881Z,9.20
2022-12-19T03:39:28.850Z,8.07
2022-12-19T03:42:16.546Z,8.07
2022-12-19T03:44:43.926Z,8.25
2022-12-19T03:47:17.254Z,8.63
2022-12-19T03:49:45.331Z,10.15
2022-12-19T03:52:41.836Z,8.43
2022-12-19T03:55:32.198Z,8.27
2022-12-19T03:58:08.864Z,9.00
2022-12-19T04:00:40.244Z,9.20
2022-12-19T04:03:09.147Z,9.23
2022-12-19T04:05:38.468Z,9.05
2022-12-19T04:08:08.226Z,10.13
2022-12-19T04:10:59.399Z,10.07
2022-12-19T04:13:36.815Z,9.75
2022-12-19T04:16:32.603Z,11.98
2022-12-19T04:19:08.709Z,11.68
2022-12-19T04:21:42.808Z,14.52
2022-12-19T04:24:21.805Z,11.50
2022-12-19T04:26:51.265Z,10.80
2022-12-19T04:29:19.312Z,11.45
2022-12-19T04:31:47.071Z,12.07
2022-12-19T04:34:18.785Z,11.13
2022-12-19T04:36:45.883Z,11.55
2022-12-19T04:39:12.748Z,11.88
2022-12-19T04:41:39.638Z,11.10
2022-12-19T04:44:06.477Z,10.85
2022-12-19T04:46:33.689Z,12.63
2022-12-19T04:49:00.541Z,11.32
2022-12-19T04:51:27.418Z,10.60
2022-12-19T04:53:54.317Z,12.27
2022-12-19T04:56:21.155Z,12.60
2022-12-19T04:58:48.250Z,11.85
2022-12-19T05:01:15.190Z,13.38
2022-12-19T05:03:42.194Z,13.25
2022-12-19T05:06:19.128Z,14.05
2022-12-19T05:08:46.304Z,11.75
2022-12-19T05:11:19.482Z,13.52
2022-12-19T05:13:46.711Z,12.70
2022-12-19T05:16:15.896Z,15.48
2022-12-19T05:18:43.200Z,15.00
2022-12-19T05:21:11.105Z,14.98
2022-12-19T05:23:38.055Z,15.02
2022-12-19T05:26:06.482Z,14.88
2022-12-19T05:28:33.788Z,14.57
2022-12-19T05:31:09.755Z,14.43
2022-12-19T05:33:37.618Z,15.02
2022-12-19T05:36:05.236Z,13.60
2022-12-19T05:38:32.226Z,14.07
2022-12-19T05:40:59.766Z,15.63
2022-12-19T05:43:27.626Z,15.85
2022-12-19T05:45:54.468Z,15.27
2022-12-19T05:48:21.358Z,15.90
2022-12-19T05:50:50.213Z,18.08
2022-12-19T05:53:20.660Z,16.17
2022-12-19T05:55:50.758Z,16.40
2022-12-19T05:58:17.600Z,16.15
2022-12-19T06:00:44.424Z,16.35
2022-12-19T06:03:11.649Z,16.35
2022-12-19T06:05:39.035Z,16.38
2022-12-19T06:08:06.472Z,16.52
2022-12-19T06:10:33.985Z,15.88
2022-12-19T06:13:00.900Z,17.75
2022-12-19T06:15:28.033Z,17.35
2022-12-19T06:17:55.627Z,18.20
2022-12-19T06:20:22.984Z,17.13
2022-12-19T06:22:49.838Z,18.30
2022-12-19T06:25:16.854Z,18.35
2022-12-19T06:27:43.748Z,18.05
2022-12-19T06:30:11.180Z,16.63
2022-12-19T06:32:38.547Z,16.77
2022-12-19T06:35:06.083Z,17.35
2022-12-19T06:37:32.946Z,17.27
2022-12-19T06:39:59.851Z,17.13
2022-12-19T06:42:26.699Z,16.20
2022-12-19T06:44:56.213Z,17.63
2022-12-19T06:47:24.651Z,16.98
2022-12-19T06:49:51.775Z,17.27
2022-12-19T06:52:18.767Z,18.38
2022-12-19T06:54:45.957Z,17.25
2022-12-19T06:57:12.879Z,18.30
2022-12-19T06:59:39.854Z,16.75
2022-12-19T07:02:12.718Z,16.95
2022-12-19T07:04:46.082Z,17.00
2022-12-19T07:07:13.159Z,20.02
2022-12-19T07:09:40.208Z,16.90
2022-12-19T07:12:07.340Z,19.02
2022-12-19T07:14:34.264Z,19.45
2022-12-19T07:17:02.833Z,22.85
2022-12-19T07:19:31.515Z,19.15
2022-12-19T07:22:00.918Z,21.08
2022-12-19T07:24:28.544Z,19.95
2022-12-19T07:26:56.204Z,19.38
2022-12-19T07:29:23.179Z,19.63
2022-12-19T07:31:50.315Z,20.25
2022-12-19T07:34:17.268Z,20.17
2022-12-19T07:36:44.261Z,18.48
2022-12-19T07:39:11.185Z,18.65
2022-12-19T07:41:38.737Z,19.65
2022-12-19T07:44:06.681Z,20.88
2022-12-19T07:46:33.708Z,18.98
2022-12-19T07:49:01.292Z,17.90
2022-12-19T07:51:28.915Z,18.27
2022-12-19T07:53:55.870Z,20.15
2022-12-19T07:56:22.730Z,19.83
2022-12-19T07:58:49.977Z,20.42
2022-12-19T08:01:16.897Z,20.73
2022-12-19T08:03:44.068Z,21.60
2022-12-19T08:06:11.168Z,19.38
2022-12-19T08:08:38.196Z,23.30
2022-12-19T08:11:10.069Z,20.23
2022-12-19T08:13:40.825Z,20.67
2022-12-19T08:16:10.725Z,20.55
2022-12-19T08:18:38.163Z,19.83
2022-12-19T08:21:05.072Z,19.83
2022-12-19T08:23:33.279Z,19.20
2022-12-19T08:26:02.122Z,21.05
2022-12-19T08:28:29.013Z,19.27
2022-12-19T08:30:55.889Z,20.70
2022-12-19T08:33:22.915Z,19.08
2022-12-19T08:35:49.772Z,19.90
2022-12-19T08:38:16.680Z,19.58
2022-12-19T08:40:47.407Z,20.77
2022-12-19T08:43:14.520Z,17.23
2022-12-19T08:45:41.472Z,18.55
2022-12-19T08:48:08.364Z,17.45
2022-12-19T08:50:35.259Z,18.48
2022-12-19T08:53:02.153Z,21.67
2022-12-19T08:55:29.068Z,18.40
2022-12-19T08:57:58.103Z,18.38
2022-12-19T09:00:25.206Z,17.67
2022-12-19T09:02:53.563Z,17.00
2022-12-19T09:06:04.061Z,18.75
2022-12-19T09:08:08.679Z,18.80
2022-12-19T09:10:39.158Z,17.60
2022-12-19T09:13:06.334Z,17.33
2022-12-19T09:15:33.182Z,16.05
2022-12-19T09:18:00.090Z,17.42
2022-12-19T09:20:26.975Z,16.60
2022-12-19T09:22:54.050Z,15.90
2022-12-19T09:25:20.968Z,16.38
2022-12-19T09:28:25.712Z,17.02
2022-12-19T09:30:35.235Z,16.23
2022-12-19T09:33:02.427Z,17.17
2022-12-19T09:35:30.610Z,17.85
2022-12-19T09:38:00.333Z,18.02
2022-12-19T09:40:35.574Z,16.67
2022-12-19T09:43:10.677Z,19.05
2022-12-19T09:45:51.580Z,16.92
2022-12-19T09:48:24.278Z,15.85
2022-12-19T09:51:11.606Z,17.45
2022-12-19T09:54:06.029Z,16.63
2022-12-19T09:56:45.510Z,16.83
2022-12-19T09:59:32.356Z,23.08
2022-12-19T10:02:32.214Z,18.00
2022-12-19T10:05:37.617Z,18.63
2022-12-19T10:08:32.892Z,15.07
2022-12-19T10:12:36.543Z,16.65
2022-12-19T10:14:27.919Z,15.63
2022-12-19T10:17:52.683Z,14.88
2022-12-19T10:20:32.823Z,16.90
2022-12-19T10:23:29.317Z,17.25
2022-12-19T10:26:30.562Z,15.30
2022-12-19T10:29:25.133Z,15.95
2022-12-19T10:32:11.595Z,16.13
2022-12-19T10:34:42.337Z,16.45
2022-12-19T10:37:36.808Z,15.82
2022-12-19T10:40:27.432Z,14.63
2022-12-19T10:43:17.099Z,16.17
2022-12-19T10:45:54.106Z,17.70
2022-12-19T10:48:30.515Z,17.08
2022-12-19T10:50:58.775Z,17.77
2022-12-19T10:53:32.264Z,16.63
2022-12-19T10:56:12.967Z,17.08
2022-12-19T10:58:43.639Z,17.10
2022-12-19T11:01:14.926Z,15.00
2022-12-19T11:03:46.515Z,17.25
2022-12-19T11:06:35.268Z,16.35
2022-12-19T11:09:18.885Z,16.10
2022-12-19T11:14:43.202Z,15.95
2022-12-19T11:18:56.686Z,17.13
2022-12-19T11:23:50.589Z,16.48
2022-12-19T11:29:30.902Z,16.83
2022-12-19T11:29:31.733Z,16.85
2022-12-19T11:29:33.807Z,16.17
2022-12-19T11:30:41.735Z,16.17
2022-12-19T11:34:30.437Z,14.90
2022-12-19T11:37:03.332Z,17.60
2022-12-19T11:39:41.083Z,15.30
2022-12-19T11:42:34.138Z,14.88
2022-12-19T11:45:16.127Z,16.17
2022-12-19T11:47:57.033Z,15.65
2022-12-19T11:50:33.481Z,15.25
2022-12-19T11:53:19.982Z,14.20
2022-12-19T11:55:56.089Z,13.95
2022-12-19T11:58:26.511Z,15.65
2022-12-19T12:01:57.927Z,26.00
2022-12-19T12:05:08.362Z,18.63
2022-12-19T12:07:56.173Z,19.02
2022-12-19T12:17:46.293Z,17.25
2022-12-19T12:22:09.799Z,13.98
2022-12-19T12:27:29.987Z,15.40
2022-12-19T12:31:12.696Z,13.55
2022-12-19T12:31:28.798Z,13.70
2022-12-19T12:31:39.471Z,14.18
2022-12-19T12:31:58.267Z,13.55
2022-12-19T12:35:48.612Z,13.82
2022-12-19T12:38:28.586Z,12.45
2022-12-19T12:41:47.122Z,12.75
2022-12-19T12:44:14.203Z,13.43
2022-12-19T12:46:49.075Z,13.93
2022-12-19T12:49:27.559Z,13.93
2022-12-19T12:51:54.779Z,13.45
2022-12-19T12:54:26.569Z,13.65
2022-12-19T12:56:55.465Z,14.00
2022-12-19T12:59:26.221Z,13.70
2022-12-19T13:02:07.146Z,15.57
2022-12-19T13:04:40.999Z,15.05
2022-12-19T13:07:16.186Z,13.80
2022-12-19T13:09:43.776Z,14.05
2022-12-19T13:12:46.596Z,12.98
2022-12-19T13:15:22.536Z,14.32
2022-12-19T13:17:49.521Z,15.48
2022-12-19T13:20:19.157Z,15.85
2022-12-19T13:23:03.718Z,15.45
2022-12-19T13:25:36.794Z,13.30
2022-12-19T13:28:03.682Z,13.32
2022-12-19T13:30:32.282Z,15.00
2022-12-19T13:33:19.059Z,13.65
2022-12-19T13:37:41.077Z,13.88
2022-12-19T13:39:51.642Z,14.73
2022-12-19T13:42:01.303Z,14.60
2022-12-19T13:44:29.089Z,15.20
2022-12-19T13:46:56.597Z,13.60
2022-12-19T13:49:34.169Z,14.32
2022-12-19T13:52:03.313Z,13.00
2022-12-19T13:54:36.705Z,14.32
2022-12-19T13:57:09.172Z,15.20
2022-12-19T13:59:40.292Z,12.82
2022-12-19T14:02:27.841Z,14.20
2022-12-19T14:04:54.880Z,14.30
2022-12-19T14:07:40.219Z,14.88
2022-12-19T14:11:35.619Z,13.25
2022-12-19T14:13:53.799Z,14.10
2022-12-19T14:16:43.223Z,14.70
2022-12-19T14:19:21.030Z,16.13
2022-12-19T14:22:04.872Z,16.27
2022-12-19T14:24:34.844Z,13.02
2022-12-19T14:28:26.721Z,14.32
2022-12-19T14:30:28.909Z,16.87
2022-12-19T14:33:39.718Z,16.77
2022-12-19T14:36:10.169Z,15.65
2022-12-19T14:39:20.264Z,14.95
2022-12-19T14:42:01.972Z,14.88
2022-12-19T14:53:51.388Z,15.52
2022-12-19T14:54:06.784Z,16.42
2022-12-19T14:54:25.519Z,16.17
2022-12-19T14:56:57.541Z,14.95
2022-12-19T14:59:05.767Z,15.32
2022-12-19T15:01:34.895Z,16.17
2022-12-19T15:04:52.103Z,15.57
2022-12-19T15:07:12.325Z,15.20
2022-12-19T15:10:58.913Z,15.00
2022-12-19T15:14:52.225Z,15.80
2022-12-19T15:16:01.621Z,15.80
2022-12-19T15:18:48.842Z,15.32
2022-12-19T15:21:15.812Z,15.65
2022-12-19T15:23:44.387Z,15.52
2022-12-19T15:26:17.562Z,15.13
2022-12-19T15:28:52.514Z,15.15
2022-12-19T15:31:41.244Z,13.70
2022-12-19T15:34:40.143Z,16.27
2022-12-19T15:37:11.279Z,15.02
2022-12-19T15:39:38.602Z,15.00
2022-12-19T15:42:06.603Z,15.05
2022-12-19T15:44:39.701Z,17.67
2022-12-19T15:47:16.301Z,18.10
2022-12-19T15:49:43.376Z,15.57
2022-12-19T15:52:21.322Z,17.42
2022-12-19T15:54:50.118Z,15.98
2022-12-19T15:57:35.226Z,17.35
2022-12-19T16:00:17.155Z,15.68
2022-12-19T16:05:31.312Z,15.07
2022-12-19T16:07:58.944Z,16.92
2022-12-19T16:10:26.712Z,16.15
2022-12-19T16:12:56.616Z,15.88
2022-12-19T16:15:26.885Z,15.63
2022-12-19T16:17:54.715Z,16.05
2022-12-19T16:20:25.506Z,19.75
2022-12-19T16:22:53.107Z,15.48
2022-12-19T16:25:20.416Z,16.05
2022-12-19T16:27:54.048Z,16.35
2022-12-19T16:30:27.959Z,15.48
2022-12-19T16:32:54.871Z,19.10
2022-12-19T16:35:40.661Z,13.52
2022-12-19T16:38:10.966Z,15.48
2022-12-19T16:40:38.119Z,15.30
2022-12-19T16:43:12.628Z,16.08
2022-12-19T16:45:39.824Z,16.00
2022-12-19T16:48:18.973Z,14.77
2022-12-19T16:50:46.022Z,14.85
2022-12-19T16:53:13.024Z,17.00
2022-12-19T16:55:40.253Z,15.75
2022-12-19T16:58:10.041Z,15.35
2022-12-19T17:00:37.797Z,13.43
2022-12-19T17:03:21.544Z,15.32
2022-12-19T17:05:48.535Z,13.70
2022-12-19T17:08:15.393Z,15.05
2022-12-19T17:10:44.723Z,14.38
2022-12-19T17:13:14.458Z,15.20
2022-12-19T17:15:43.586Z,13.73
2022-12-19T17:18:36.180Z,14.77
2022-12-19T17:21:03.075Z,13.13
2022-12-19T17:23:32.420Z,14.55
2022-12-19T17:26:00.846Z,12.82
2022-12-19T17:28:29.055Z,12.93
2022-12-19T17:31:02.164Z,13.77
2022-12-19T17:33:34.497Z,15.18
2022-12-19T17:36:02.758Z,12.80
2022-12-19T17:38:29.672Z,13.95
2022-12-19T17:40:56.687Z,13.32
2022-12-19T17:43:23.781Z,14.02
2022-12-19T17:45:51.576Z,13.65
2022-12-19T17:48:30.583Z,12.10
2022-12-19T17:50:58.308Z,12.50
2022-12-19T17:53:25.951Z,11.90
2022-12-19T17:55:53.107Z,14.68
2022-12-19T17:58:21.627Z,12.93
2022-12-19T18:00:51.076Z,11.80
2022-12-19T18:03:26.670Z,12.15
2022-12-19T18:05:55.418Z,12.27
2022-12-19T18:08:30.719Z,11.70
2022-12-19T18:11:00.776Z,11.25
2022-12-19T18:13:28.696Z,13.95
2022-12-19T18:16:03.045Z,13.45
2022-12-19T18:18:35.246Z,11.88
2022-12-19T18:21:03.063Z,12.68
2022-12-19T18:23:33.079Z,11.32
2022-12-19T18:26:02.338Z,13.05
2022-12-19T18:28:30.135Z,14.32
2022-12-19T18:31:03.139Z,12.95
2022-12-19T18:33:37.642Z,12.05
2022-12-19T18:36:06.457Z,13.07
2022-12-19T18:38:33.508Z,14.02
2022-12-19T18:41:00.339Z,12.75
2022-12-19T18:43:27.251Z,11.05
2022-12-19T18:45:54.243Z,12.48
2022-12-19T18:48:28.605Z,12.70
2022-12-19T18:50:57.141Z,12.45
2022-12-19T18:53:34.566Z,11.88
2022-12-19T18:56:03.492Z,13.80
2022-12-19T18:58:30.467Z,11.65
2022-12-19T19:00:59.665Z,11.00
2022-12-19T19:03:33.028Z,13.80
2022-12-19T19:06:00.485Z,12.32
2022-12-19T19:08:29.702Z,11.40
2022-12-19T19:10:57.305Z,11.93
2022-12-19T19:13:26.041Z,12.82
2022-12-19T19:15:56.559Z,14.32
2022-12-19T19:18:30.557Z,12.98
2022-12-19T19:21:01.309Z,12.38
2022-12-19T19:23:36.207Z,10.38
2022-12-19T19:26:03.071Z,11.93
2022-12-19T19:28:30.181Z,10.82
2022-12-19T19:30:59.962Z,13.30
2022-12-19T19:33:32.743Z,12.52
2022-12-19T19:36:10.988Z,12.55
2022-12-19T19:38:40.033Z,13.43
2022-12-19T19:41:06.974Z,12.52
2022-12-19T19:43:35.541Z,13.48
2022-12-19T19:46:03.037Z,11.40
2022-12-19T19:48:30.394Z,12.25
2022-12-19T19:50:57.671Z,10.35
2022-12-19T19:53:24.524Z,10.70
2022-12-19T19:56:00.612Z,11.40
2022-12-19T19:58:28.387Z,11.20
2022-12-19T20:00:56.786Z,10.38
2022-12-19T20:03:24.548Z,10.43
2022-12-19T20:05:59.173Z,12.07
2022-12-19T20:08:26.197Z,10.73
2022-12-19T20:10:58.547Z,11.05
2022-12-19T20:13:25.720Z,11.52
2022-12-19T20:15:52.679Z,11.57
2022-12-19T20:18:20.517Z,11.30
2022-12-19T20:20:48.772Z,10.20
2022-12-19T20:23:15.704Z,11.05
2022-12-19T20:25:43.220Z,12.38
2022-12-19T20:28:10.295Z,14.50
2022-12-19T20:30:38.207Z,11.10
2022-12-19T20:33:05.112Z,11.63
2022-12-19T20:35:32.113Z,10.90
2022-12-19T20:37:59.028Z,12.27
2022-12-19T20:40:25.930Z,12.02
2022-12-19T20:42:52.794Z,10.55
2022-12-19T20:45:19.719Z,11.43
2022-12-19T20:47:46.615Z,10.65
2022-12-19T20:50:14.932Z,10.18
2022-12-19T20:52:42.498Z,11.82
2022-12-19T20:55:09.928Z,10.68
2022-12-19T20:57:37.138Z,10.93
2022-12-19T21:00:08.756Z,10.70
2022-12-19T21:03:00.133Z,10.73
2022-12-19T21:05:22.812Z,11.23
2022-12-19T21:07:49.747Z,10.20
2022-12-19T21:10:16.730Z,11.88
2022-12-19T21:12:47.588Z,10.93
2022-12-19T21:15:15.671Z,10.48
2022-12-19T21:17:42.733Z,11.73
2022-12-19T21:20:10.187Z,17.40
2022-12-19T21:22:37.034Z,13.10
2022-12-19T21:25:05.371Z,13.23
2022-12-19T21:27:32.259Z,11.55
2022-12-19T21:30:00.472Z,11.88
2022-12-19T21:32:27.653Z,11.02
2022-12-19T21:34:54.488Z,11.45
2022-12-19T21:37:21.417Z,12.20
2022-12-19T21:39:48.327Z,11.93
2022-12-19T21:42:15.278Z,11.40
2022-12-19T21:44:42.104Z,10.75
2022-12-19T21:47:08.997Z,11.43
2022-12-19T21:49:35.881Z,12.02
2022-12-19T21:52:02.851Z,13.00
2022-12-19T21:54:29.671Z,12.02
2022-12-19T21:56:56.467Z,11.73
2022-12-19T21:59:23.287Z,11.38
2022-12-19T22:01:50.482Z,11.20
2022-12-19T22:04:21.020Z,12.13
2022-12-19T22:06:49.090Z,11.03
2022-12-19T22:09:18.904Z,12.07
2022-12-19T22:11:46.629Z,10.50
2022-12-19T22:14:14.752Z,12.48
2022-12-19T22:16:42.466Z,11.45
2022-12-19T22:19:12.847Z,13.05
2022-12-19T22:21:40.453Z,12.07
2022-12-19T22:24:07.970Z,11.82
2022-12-19T22:26:35.677Z,12.88
2022-12-19T22:29:07.556Z,12.07
2022-12-19T22:31:36.150Z,13.00
2022-12-19T22:34:26.494Z,11.20
2022-12-19T22:36:53.373Z,13.35
2022-12-19T22:39:22.481Z,12.70
2022-12-19T22:41:49.397Z,10.98
2022-12-19T22:44:22.226Z,12.00
2022-12-19T22:46:49.985Z,11.35
2022-12-19T22:49:17.749Z,11.73
2022-12-19T22:51:44.765Z,12.90
2022-12-19T22:54:12.911Z,12.02
2022-12-19T22:56:40.584Z,10.88
2022-12-19T22:59:08.295Z,11.27
2022-12-19T23:01:38.466Z,12.10
2022-12-19T23:04:07.764Z,12.55
2022-12-19T23:06:36.915Z,11.20
2022-12-19T23:09:04.957Z,11.18
2022-12-19T23:11:38.940Z,13.25
2022-12-19T23:14:08.095Z,11.15
2022-12-19T23:16:35.408Z,10.90
2022-12-19T23:19:02.584Z,12.88
2022-12-19T23:21:29.493Z,10.82
2022-12-19T23:23:56.730Z,11.40
2022-12-19T23:26:29.511Z,11.63
2022-12-19T23:28:58.996Z,11.70
2022-12-19T23:31:26.547Z,12.23
2022-12-19T23:33:54.045Z,11.60
2022-12-19T23:36:45.345Z,11.52
2022-12-19T23:39:09.643Z,10.98
2022-12-19T23:41:36.567Z,11.43
2022-12-19T23:44:03.891Z,12.68
2022-12-19T23:46:31.112Z,12.68
2022-12-19T23:48:58.030Z,10.02
2022-12-19T23:51:26.615Z,11.88
2022-12-19T23:53:55.060Z,12.00
2022-12-19T23:56:25.210Z,11.88
2022-12-19T23:58:52.531Z,12.50
